createdAt,value
2017-08-30T00:00:25.365Z,75.80
2017-08-30T00:02:55.010Z,75.80
2017-08-30T00:05:25.038Z,75.80
2017-08-30T00:07:53.889Z,76.00
2017-08-30T00:10:24.657Z,75.90
2017-08-30T00:12:53.561Z,76.00
2017-08-30T00:15:24.961Z,76.20
2017-08-30T00:17:53.487Z,76.60
2017-08-30T00:20:23.513Z,76.80
2017-08-30T00:22:53.351Z,76.90
2017-08-30T00:25:33.318Z,77.30
2017-08-30T00:28:00.861Z,77.70
2017-08-30T00:30:28.410Z,77.80
2017-08-30T00:32:56.386Z,78.10
2017-08-30T00:35:25.053Z,78.20
2017-08-30T00:37:54.332Z,78.10
2017-08-30T00:40:24.685Z,78.10
2017-08-30T00:42:54.564Z,78.20
2017-08-30T00:45:23.747Z,78.00
2017-08-30T00:47:54.649Z,77.90
2017-08-30T00:50:24.261Z,77.70
2017-08-30T00:52:53.921Z,77.50
2017-08-30T00:55:22.379Z,77.50
2017-08-30T00:57:52.981Z,77.30
2017-08-30T01:00:22.724Z,77.30
2017-08-30T01:02:51.616Z,77.30
2017-08-30T01:05:22.346Z,77.20
2017-08-30T01:08:01.855Z,77.30
2017-08-30T01:10:29.361Z,77.30
2017-08-30T01:12:56.949Z,77.30
2017-08-30T01:15:24.985Z,77.30
2017-08-30T01:17:53.139Z,77.40
2017-08-30T01:20:22.127Z,77.60
2017-08-30T01:22:52.061Z,77.60
2017-08-30T01:25:22.597Z,77.70
2017-08-30T01:27:53.634Z,77.90
2017-08-30T01:30:25.328Z,78.00
2017-08-30T01:32:54.775Z,78.20
2017-08-30T01:35:24.173Z,78.20
2017-08-30T01:37:55.546Z,79.10
2017-08-30T01:40:24.697Z,78.30
2017-08-30T01:42:54.460Z,78.40
2017-08-30T01:45:24.034Z,78.50
2017-08-30T01:47:54.487Z,78.60
2017-08-30T01:50:25.905Z,78.60
2017-08-30T01:52:54.744Z,78.80
2017-08-30T01:55:24.341Z,78.90
2017-08-30T01:57:55.572Z,78.80
2017-08-30T02:00:24.960Z,78.80
2017-08-30T02:02:54.107Z,78.90
2017-08-30T02:05:25.070Z,78.70
2017-08-30T02:07:52.872Z,78.80
2017-08-30T02:10:22.309Z,78.90
2017-08-30T02:12:53.067Z,79.00
2017-08-30T02:15:22.824Z,78.90
2017-08-30T02:17:52.451Z,78.80
2017-08-30T02:20:23.383Z,79.60
2017-08-30T02:22:53.565Z,78.90
2017-08-30T02:25:23.770Z,78.80
2017-08-30T02:27:53.083Z,78.90
2017-08-30T02:30:24.616Z,78.90
2017-08-30T02:32:53.944Z,79.00
2017-08-30T02:35:34.994Z,79.00
2017-08-30T02:38:02.502Z,79.30
2017-08-30T02:40:30.062Z,79.30
2017-08-30T02:42:57.632Z,79.50
2017-08-30T02:45:26.881Z,79.30
2017-08-30T02:47:55.600Z,79.30
2017-08-30T02:50:25.733Z,79.40
2017-08-30T02:52:56.209Z,79.40
2017-08-30T02:55:25.806Z,79.60
2017-08-30T02:57:54.655Z,79.80
2017-08-30T03:00:25.617Z,80.00
2017-08-30T03:02:54.230Z,80.00
2017-08-30T03:05:33.517Z,80.30
2017-08-30T03:08:01.096Z,80.30
2017-08-30T03:10:28.588Z,80.20
2017-08-30T03:12:58.056Z,80.70
2017-08-30T03:15:35.105Z,80.70
2017-08-30T03:18:02.637Z,80.80
2017-08-30T03:20:30.195Z,81.00
2017-08-30T03:23:03.473Z,81.10
2017-08-30T03:25:32.617Z,81.30
2017-08-30T03:28:00.184Z,82.20
2017-08-30T03:30:28.864Z,81.60
2017-08-30T03:33:04.581Z,81.80
2017-08-30T03:35:41.675Z,81.90
2017-08-30T03:38:09.166Z,81.90
2017-08-30T03:40:36.738Z,82.00
2017-08-30T03:43:04.289Z,81.90
2017-08-30T03:45:35.637Z,82.20
2017-08-30T03:48:03.167Z,82.30
2017-08-30T03:53:43.825Z,83.30
2017-08-30T03:56:26.969Z,82.90
2017-08-30T03:59:02.861Z,82.80
2017-08-30T04:01:32.581Z,82.80
2017-08-30T04:04:01.442Z,83.10
2017-08-30T04:06:31.002Z,83.00
2017-08-30T04:09:01.660Z,83.00
2017-08-30T04:11:31.725Z,83.10
2017-08-30T04:14:01.541Z,83.00
2017-08-30T04:16:30.702Z,83.00
2017-08-30T04:19:00.102Z,82.90
2017-08-30T04:21:29.357Z,82.80
2017-08-30T04:23:58.693Z,82.80
2017-08-30T04:26:27.380Z,82.80
2017-08-30T04:28:57.396Z,82.80
2017-08-30T04:31:27.334Z,82.80
2017-08-30T04:33:56.700Z,82.80
2017-08-30T04:36:27.473Z,82.90
2017-08-30T04:39:07.382Z,82.80
2017-08-30T04:41:34.995Z,82.90
2017-08-30T04:44:02.522Z,82.70
2017-08-30T04:46:30.260Z,82.60
2017-08-30T04:49:00.676Z,82.60
2017-08-30T04:51:31.238Z,82.40
2017-08-30T04:54:01.073Z,82.30
2017-08-30T04:56:29.270Z,82.00
2017-08-30T04:58:59.193Z,81.80
2017-08-30T05:01:29.345Z,81.70
2017-08-30T05:03:57.987Z,81.40
2017-08-30T05:06:28.162Z,81.30
2017-08-30T05:08:58.771Z,81.10
2017-08-30T05:11:26.965Z,81.10
2017-08-30T05:13:57.065Z,80.80
2017-08-30T05:16:26.168Z,80.70
2017-08-30T05:18:55.321Z,80.60
2017-08-30T05:21:25.213Z,80.60
2017-08-30T05:23:55.526Z,80.50
2017-08-30T05:26:26.205Z,80.50
2017-08-30T05:28:55.448Z,80.50
2017-08-30T05:31:25.601Z,80.50
2017-08-30T05:34:04.734Z,80.40
2017-08-30T05:36:32.222Z,80.20
2017-08-30T05:39:00.664Z,80.00
2017-08-30T05:41:28.501Z,79.70
2017-08-30T05:43:56.289Z,79.30
2017-08-30T05:46:24.783Z,79.10
2017-08-30T05:48:56.903Z,78.80
2017-08-30T05:51:26.433Z,78.00
2017-08-30T05:53:56.948Z,77.80
2017-08-30T05:56:26.318Z,77.50
2017-08-30T05:58:56.512Z,78.00
2017-08-30T06:01:26.970Z,77.20
2017-08-30T06:03:59.174Z,77.70
2017-08-30T06:06:28.577Z,76.70
2017-08-30T06:08:57.562Z,76.30
2017-08-30T06:11:28.314Z,75.80
2017-08-30T06:13:59.276Z,75.50
2017-08-30T06:16:29.890Z,75.00
2017-08-30T06:18:58.066Z,74.60
2017-08-30T06:21:27.327Z,74.90
2017-08-30T06:23:56.987Z,75.10
2017-08-30T06:26:26.990Z,75.10
2017-08-30T06:28:58.051Z,75.40
2017-08-30T06:31:28.392Z,75.50
2017-08-30T06:34:00.957Z,75.60
2017-08-30T06:36:30.477Z,75.70
2017-08-30T06:38:59.538Z,75.50
2017-08-30T06:41:30.657Z,75.60
2017-08-30T06:44:00.266Z,75.30
2017-08-30T06:46:31.645Z,75.30
2017-08-30T06:49:01.489Z,75.40
2017-08-30T06:51:34.074Z,75.30
2017-08-30T06:54:02.581Z,75.10
2017-08-30T06:56:30.613Z,74.40
2017-08-30T06:58:58.177Z,75.50
2017-08-30T07:01:25.717Z,76.70
2017-08-30T07:03:53.225Z,77.40
2017-08-30T07:06:20.721Z,78.50
2017-08-30T07:08:48.967Z,78.50
2017-08-30T07:11:17.852Z,79.10
2017-08-30T07:13:46.984Z,79.50
2017-08-30T07:16:15.539Z,79.80
2017-08-30T07:18:45.563Z,79.50
2017-08-30T07:21:14.580Z,79.00
2017-08-30T07:23:43.789Z,78.40
2017-08-30T07:26:13.490Z,78.00
2017-08-30T07:28:43.347Z,77.10
2017-08-30T07:31:15.640Z,77.40
2017-08-30T07:33:53.506Z,76.90
2017-08-30T07:36:21.033Z,77.20
2017-08-30T07:38:48.521Z,76.40
2017-08-30T07:41:16.785Z,75.90
2017-08-30T07:43:54.226Z,76.50
2017-08-30T07:46:21.756Z,76.70
2017-08-30T07:48:49.249Z,77.60
2017-08-30T07:51:17.577Z,76.30
2017-08-30T07:53:45.544Z,76.80
2017-08-30T07:56:13.732Z,76.50
2017-08-30T07:58:42.345Z,76.00
2017-08-30T08:01:10.473Z,76.40
2017-08-30T08:03:38.225Z,75.80
2017-08-30T08:06:05.730Z,75.80
2017-08-30T08:08:33.413Z,74.50
2017-08-30T08:11:00.993Z,74.70
2017-08-30T08:13:28.581Z,75.00
2017-08-30T08:15:56.633Z,75.70
2017-08-30T08:18:24.790Z,75.50
2017-08-30T08:20:54.520Z,75.90
2017-08-30T08:23:24.075Z,76.10
2017-08-30T08:25:53.720Z,76.40
2017-08-30T08:28:23.049Z,78.20
2017-08-30T08:30:52.401Z,78.70
2017-08-30T08:33:21.388Z,79.30
2017-08-30T08:35:54.365Z,80.20
2017-08-30T08:38:24.318Z,81.20
2017-08-30T08:40:56.052Z,81.50
2017-08-30T08:43:27.519Z,83.70
2017-08-30T08:45:56.812Z,84.90
2017-08-30T08:48:28.108Z,82.10
2017-08-30T08:50:58.250Z,83.50
2017-08-30T08:53:27.239Z,82.30
2017-08-30T08:55:54.845Z,85.80
2017-08-30T08:58:22.901Z,86.80
2017-08-30T09:00:52.101Z,87.20
2017-08-30T09:03:20.365Z,88.30
2017-08-30T09:05:50.721Z,89.60
2017-08-30T09:08:20.926Z,88.00
2017-08-30T09:10:51.440Z,86.20
2017-08-30T09:13:20.877Z,84.90
2017-08-30T09:15:49.305Z,84.70
2017-08-30T09:18:21.218Z,83.80
2017-08-30T09:20:50.743Z,82.60
2017-08-30T09:23:21.566Z,84.90
2017-08-30T09:25:50.146Z,86.30
2017-08-30T09:28:21.454Z,86.30
2017-08-30T09:30:52.370Z,86.40
2017-08-30T09:33:23.014Z,84.70
2017-08-30T09:36:01.322Z,83.60
2017-08-30T09:38:30.217Z,84.70
2017-08-30T09:40:57.721Z,87.70
2017-08-30T09:43:25.280Z,88.50
2017-08-30T09:45:58.593Z,90.10
2017-08-30T09:48:26.101Z,86.70
2017-08-30T09:50:54.461Z,86.80
2017-08-30T09:53:24.402Z,82.20
2017-08-30T09:55:54.057Z,81.20
2017-08-30T09:58:24.776Z,83.50
2017-08-30T10:00:56.542Z,80.40
2017-08-30T10:03:25.680Z,80.30
2017-08-30T10:05:56.060Z,80.30
2017-08-30T10:08:24.682Z,76.30
2017-08-30T10:10:54.656Z,74.30
2017-08-30T10:13:24.170Z,73.70
2017-08-30T10:16:00.369Z,71.90
2017-08-30T10:18:27.884Z,69.00
2017-08-30T10:20:55.378Z,67.60
2017-08-30T10:23:24.793Z,65.00
2017-08-30T10:25:59.793Z,67.10
2017-08-30T10:28:27.352Z,64.10
2017-08-30T10:30:54.841Z,63.50
2017-08-30T10:33:32.874Z,62.10
2017-08-30T10:36:03.920Z,61.30
2017-08-30T10:38:31.459Z,63.50
2017-08-30T10:41:09.678Z,64.20
2017-08-30T10:43:38.645Z,62.50
2017-08-30T10:46:27.749Z,59.20
2017-08-30T10:49:04.013Z,58.50
2017-08-30T10:51:45.126Z,60.50
2017-08-30T10:54:30.381Z,60.30
2017-08-30T10:57:36.125Z,59.10
2017-08-30T11:00:03.637Z,58.60
2017-08-30T11:02:31.128Z,58.30
2017-08-30T11:05:00.824Z,58.40
2017-08-30T11:07:34.361Z,57.60
2017-08-30T11:10:06.641Z,56.70
2017-08-30T11:12:34.621Z,56.60
2017-08-30T11:15:02.191Z,55.70
2017-08-30T11:17:34.873Z,56.10
2017-08-30T11:22:58.129Z,55.50
2017-08-30T11:25:25.845Z,55.90
2017-08-30T11:28:24.600Z,56.90
2017-08-30T11:31:04.575Z,57.40
2017-08-30T11:36:34.057Z,57.00
2017-08-30T11:39:09.130Z,55.00
2017-08-30T11:44:23.303Z,54.60
2017-08-30T11:47:02.673Z,54.80
2017-08-30T11:55:25.925Z,54.10
2017-08-30T12:00:52.368Z,55.80
2017-08-30T12:03:30.967Z,58.00
2017-08-30T12:05:58.543Z,59.30
2017-08-30T12:08:30.872Z,60.00
2017-08-30T12:11:00.285Z,61.90
2017-08-30T12:13:29.164Z,62.90
2017-08-30T12:15:56.654Z,62.60
2017-08-30T12:18:24.243Z,63.00
2017-08-30T12:20:51.815Z,63.40
2017-08-30T12:23:19.412Z,64.50
2017-08-30T12:25:54.893Z,65.90
2017-08-30T12:28:25.516Z,66.30
2017-08-30T12:31:27.283Z,66.10
2017-08-30T12:33:58.506Z,66.30
2017-08-30T12:39:36.073Z,67.30
2017-08-30T12:42:03.657Z,67.40
2017-08-30T12:44:31.166Z,67.70
2017-08-30T12:47:04.353Z,66.50
2017-08-30T12:49:31.917Z,67.60
2017-08-30T12:52:07.777Z,68.20
2017-08-30T12:54:56.873Z,67.40
2017-08-30T13:01:05.881Z,68.00
2017-08-30T13:06:27.029Z,66.50
2017-08-30T13:11:59.957Z,67.20
2017-08-30T13:17:38.169Z,67.40
2017-08-30T13:23:07.087Z,66.10
2017-08-30T13:25:34.625Z,66.60
2017-08-30T13:28:07.726Z,65.40
2017-08-30T13:30:39.605Z,65.60
2017-08-30T13:33:08.890Z,66.00
2017-08-30T13:35:57.932Z,67.80
2017-08-30T13:38:26.340Z,67.90
2017-08-30T13:40:53.888Z,68.30
2017-08-30T13:43:29.829Z,67.90
2017-08-30T13:45:57.317Z,67.80
2017-08-30T13:48:35.101Z,67.80
2017-08-30T13:51:07.180Z,68.40
2017-08-30T13:53:34.701Z,69.00
2017-08-30T14:02:07.551Z,68.20
2017-08-30T14:04:59.737Z,67.70
2017-08-30T14:07:30.057Z,67.80
2017-08-30T14:13:25.451Z,69.80
2017-08-30T14:15:56.734Z,68.00
2017-08-30T14:21:29.289Z,69.20
2017-08-30T14:35:55.606Z,72.30
2017-08-30T14:38:59.781Z,72.70
2017-08-30T14:53:25.604Z,72.30
2017-08-30T14:56:06.236Z,72.80
2017-08-30T15:04:28.577Z,72.60
2017-08-30T15:07:06.185Z,72.50
2017-08-30T15:09:33.696Z,72.00
2017-08-30T15:12:01.190Z,72.10
2017-08-30T15:14:28.753Z,72.10
2017-08-30T15:16:56.293Z,71.70
2017-08-30T15:19:30.654Z,72.00
2017-08-30T15:22:09.818Z,72.30
2017-08-30T15:24:37.334Z,72.40
2017-08-30T15:27:25.121Z,72.50
2017-08-30T15:30:02.234Z,72.90
2017-08-30T15:35:34.669Z,74.70
2017-08-30T15:38:02.246Z,73.70
2017-08-30T15:40:35.133Z,73.90
2017-08-30T15:43:10.730Z,73.70
2017-08-30T15:46:03.337Z,74.40
2017-08-30T15:48:30.917Z,74.70
2017-08-30T15:51:07.657Z,74.90
2017-08-30T15:53:35.149Z,74.60
2017-08-30T15:56:03.907Z,74.80
2017-08-30T15:58:33.888Z,74.80
2017-08-30T16:01:08.053Z,75.10
2017-08-30T16:03:56.952Z,75.40
2017-08-30T16:06:27.033Z,75.50
2017-08-30T16:12:06.290Z,75.50
2017-08-30T16:14:34.017Z,75.90
2017-08-30T16:17:05.653Z,75.60
2017-08-30T16:22:38.680Z,75.40
2017-08-30T16:25:06.169Z,75.50
2017-08-30T16:27:35.155Z,75.80
2017-08-30T16:30:02.669Z,75.60
2017-08-30T16:32:55.350Z,75.90
2017-08-30T16:35:25.408Z,75.80
2017-08-30T16:38:04.723Z,76.10
2017-08-30T16:40:32.276Z,76.20
2017-08-30T16:43:24.417Z,76.60
2017-08-30T16:46:04.597Z,77.10
2017-08-30T16:48:40.029Z,77.20
2017-08-30T16:51:30.036Z,77.40
2017-08-30T16:54:00.105Z,76.90
2017-08-30T16:56:27.601Z,77.20
2017-08-30T16:59:00.034Z,77.00
2017-08-30T17:01:28.701Z,77.90
2017-08-30T17:03:56.189Z,76.50
2017-08-30T17:09:50.495Z,76.70
2017-08-30T17:12:23.935Z,76.60
2017-08-30T17:14:51.447Z,76.70
2017-08-30T17:17:19.057Z,78.00
2017-08-30T17:19:55.767Z,77.90
2017-08-30T17:22:23.257Z,78.70
2017-08-30T17:24:50.745Z,78.90
2017-08-30T17:27:18.250Z,78.90
2017-08-30T17:29:45.737Z,78.80
2017-08-30T17:32:17.610Z,79.80
2017-08-30T17:34:45.913Z,79.00
2017-08-30T17:37:28.525Z,79.50
2017-08-30T17:39:57.165Z,80.10
2017-08-30T17:42:24.677Z,80.80
2017-08-30T17:44:52.169Z,81.40
2017-08-30T17:47:19.679Z,81.90
2017-08-30T17:49:50.812Z,82.40
2017-08-30T17:52:18.332Z,82.20
2017-08-30T17:54:46.859Z,82.50
2017-08-30T17:57:16.846Z,82.20
2017-08-30T17:59:46.589Z,81.80
2017-08-30T18:02:14.645Z,81.60
2017-08-30T18:04:50.976Z,82.20
2017-08-30T18:07:18.465Z,83.20
2017-08-30T18:09:48.011Z,84.20
2017-08-30T18:12:15.609Z,83.90
2017-08-30T18:14:47.897Z,83.50
2017-08-30T18:17:15.856Z,83.70
2017-08-30T18:19:45.270Z,84.10
2017-08-30T18:22:14.861Z,84.00
2017-08-30T18:24:46.810Z,84.50
2017-08-30T18:27:15.141Z,84.80
2017-08-30T18:29:45.189Z,85.30
2017-08-30T18:32:13.388Z,86.10
2017-08-30T18:34:52.021Z,85.90
2017-08-30T18:37:20.297Z,87.10
2017-08-30T18:39:50.765Z,87.10
2017-08-30T18:42:18.525Z,87.20
2017-08-30T18:44:52.870Z,87.90
2017-08-30T18:47:41.124Z,88.30
2017-08-30T18:50:12.433Z,88.20
2017-08-30T18:52:46.414Z,88.40
2017-08-30T18:55:15.979Z,88.20
2017-08-30T18:57:47.111Z,86.40
2017-08-30T19:00:19.441Z,84.00
2017-08-30T19:02:48.878Z,83.60
2017-08-30T19:05:16.397Z,83.20
2017-08-30T19:07:45.426Z,83.20
2017-08-30T19:10:16.596Z,83.40
2017-08-30T19:12:44.837Z,83.50
2017-08-30T19:15:19.118Z,84.00
2017-08-30T19:17:56.690Z,84.00
2017-08-30T19:20:24.182Z,84.30
2017-08-30T19:23:20.748Z,84.40
2017-08-30T19:31:53.646Z,84.70
2017-08-30T19:34:30.605Z,85.20
2017-08-30T19:37:27.818Z,85.30
2017-08-30T19:43:18.106Z,85.70
2017-08-30T19:45:59.531Z,85.90
2017-08-30T19:48:27.049Z,86.30
2017-08-30T19:50:54.529Z,86.60
2017-08-30T19:53:22.041Z,86.30
2017-08-30T19:55:59.382Z,86.40
2017-08-30T19:58:34.535Z,86.60
2017-08-30T20:01:06.354Z,87.20
2017-08-30T20:03:46.568Z,87.40
2017-08-30T20:06:24.765Z,88.00
2017-08-30T20:09:06.880Z,88.40
2017-08-30T20:11:54.101Z,89.20
2017-08-30T20:14:26.689Z,89.40
2017-08-30T20:16:54.245Z,89.20
2017-08-30T20:19:22.029Z,88.70
2017-08-30T20:24:55.373Z,89.10
2017-08-30T20:27:25.573Z,89.30
2017-08-30T20:30:01.841Z,89.50
2017-08-30T20:32:30.682Z,89.30
2017-08-30T20:35:06.342Z,89.60
2017-08-30T20:37:33.857Z,89.90
2017-08-30T20:40:02.567Z,90.00
2017-08-30T20:42:30.851Z,90.00
2017-08-30T20:45:00.720Z,89.80
2017-08-30T20:47:29.244Z,90.00
2017-08-30T20:49:56.797Z,89.40
2017-08-30T20:52:40.129Z,89.30
2017-08-30T20:55:07.641Z,89.60
2017-08-30T20:57:43.630Z,89.60
2017-08-30T21:00:11.133Z,90.10
2017-08-30T21:02:38.709Z,90.20
2017-08-30T21:05:06.257Z,90.80
2017-08-30T21:07:33.749Z,90.50
2017-08-30T21:10:02.592Z,90.60
2017-08-30T21:12:32.666Z,90.70
2017-08-30T21:15:02.296Z,90.80
2017-08-30T21:17:31.829Z,90.90
2017-08-30T21:20:02.254Z,91.00
2017-08-30T21:22:33.836Z,91.10
2017-08-30T21:25:06.357Z,91.30
2017-08-30T21:27:33.925Z,91.30
2017-08-30T21:30:02.820Z,91.40
2017-08-30T21:32:33.000Z,91.30
2017-08-30T21:35:03.690Z,91.30
2017-08-30T21:37:32.872Z,91.40
2017-08-30T21:40:02.723Z,91.50
2017-08-30T21:42:31.393Z,91.40
2017-08-30T21:45:01.361Z,91.30
2017-08-30T21:47:29.764Z,91.30
2017-08-30T21:49:57.567Z,91.30
2017-08-30T21:52:30.153Z,91.60
2017-08-30T21:55:02.380Z,91.70
2017-08-30T21:57:31.456Z,91.80
2017-08-30T22:00:00.234Z,91.70
2017-08-30T22:02:32.206Z,91.80
2017-08-30T22:05:02.414Z,91.90
2017-08-30T22:07:32.363Z,91.90
2017-08-30T22:10:01.942Z,92.40
2017-08-30T22:12:30.628Z,92.00
2017-08-30T22:15:00.415Z,92.10
2017-08-30T22:17:29.181Z,92.00
2017-08-30T22:20:00.301Z,92.20
2017-08-30T22:22:29.380Z,91.90
2017-08-30T22:25:01.076Z,92.00
2017-08-30T22:27:38.841Z,91.90
2017-08-30T22:30:07.121Z,91.90
2017-08-30T22:32:34.617Z,91.90
2017-08-30T22:35:03.168Z,91.90
2017-08-30T22:37:31.967Z,91.90
2017-08-30T22:40:00.352Z,92.00
2017-08-30T22:42:32.538Z,92.20
2017-08-30T22:45:06.098Z,91.90
2017-08-30T22:47:33.997Z,92.30
2017-08-30T22:50:01.721Z,92.30
2017-08-30T22:52:32.427Z,92.30
2017-08-30T22:55:01.067Z,92.20
2017-08-30T22:57:32.037Z,92.20
2017-08-30T23:00:01.836Z,92.30
2017-08-30T23:02:30.780Z,92.30
2017-08-30T23:05:01.809Z,92.30
2017-08-30T23:07:30.856Z,92.40
2017-08-30T23:09:59.598Z,92.40
2017-08-30T23:12:30.038Z,92.40
2017-08-30T23:15:00.350Z,92.50
2017-08-30T23:17:30.172Z,92.40
2017-08-30T23:20:00.617Z,92.10
2017-08-30T23:22:31.295Z,92.40
2017-08-30T23:24:59.449Z,92.60
2017-08-30T23:27:30.256Z,92.60
2017-08-30T23:29:59.631Z,92.70
2017-08-30T23:32:39.137Z,92.90
2017-08-30T23:35:06.709Z,92.80
2017-08-30T23:37:34.198Z,92.80
2017-08-30T23:40:03.047Z,93.30
2017-08-30T23:42:33.182Z,93.20
2017-08-30T23:45:13.548Z,93.20
2017-08-30T23:47:41.040Z,93.20
2017-08-30T23:50:08.592Z,93.60
2017-08-30T23:52:36.085Z,93.40
2017-08-30T23:55:06.684Z,93.50
2017-08-30T23:57:35.808Z,93.60
